createdAt,value
2023-04-27T00:00:13.648Z,3.60
2023-04-27T00:05:15.840Z,3.50
2023-04-27T00:10:18.012Z,3.60
2023-04-27T00:15:20.008Z,3.50
2023-04-27T00:20:22.111Z,3.40
2023-04-27T00:25:24.201Z,3.40
2023-04-27T00:30:26.352Z,3.30
2023-04-27T00:35:28.848Z,3.30
2023-04-27T00:40:31.020Z,3.30
2023-04-27T00:45:36.300Z,3.20
2023-04-27T00:50:39.142Z,3.20
2023-04-27T00:55:41.500Z,3.20
2023-04-27T01:00:44.089Z,3.20
2023-04-27T01:05:46.140Z,3.10
2023-04-27T01:10:49.860Z,3.10
2023-04-27T01:15:51.975Z,3.10
2023-04-27T01:20:54.140Z,3.10
2023-04-27T01:25:56.137Z,3.10
2023-04-27T01:30:58.190Z,3.00
2023-04-27T01:36:01.083Z,2.90
2023-04-27T01:41:09.190Z,3.00
2023-04-27T01:46:13.752Z,2.90
2023-04-27T01:51:16.206Z,2.90
2023-04-27T01:56:20.180Z,2.90
2023-04-27T02:01:23.474Z,2.80
2023-04-27T02:06:25.514Z,2.80
2023-04-27T02:11:27.754Z,2.80
2023-04-27T02:16:31.032Z,2.80
2023-04-27T02:21:33.503Z,2.80
2023-04-27T02:26:36.112Z,2.70
2023-04-27T02:31:39.264Z,2.70
2023-04-27T02:36:41.359Z,2.70
2023-04-27T02:41:44.613Z,2.60
2023-04-27T02:46:46.754Z,2.60
2023-04-27T02:51:48.778Z,2.50
2023-04-27T02:56:50.776Z,2.50
2023-04-27T03:01:52.890Z,2.50
2023-04-27T03:06:54.905Z,2.40
2023-04-27T03:11:56.951Z,2.40
2023-04-27T03:16:58.975Z,2.40
2023-04-27T03:22:01.649Z,2.30
2023-04-27T03:27:03.705Z,2.40
2023-04-27T03:32:06.033Z,2.40
2023-04-27T03:37:08.089Z,2.30
2023-04-27T03:42:12.271Z,2.40
2023-04-27T03:47:14.319Z,2.40
2023-04-27T03:52:17.496Z,2.40
2023-04-27T03:57:19.823Z,2.30
2023-04-27T04:02:23.631Z,2.30
2023-04-27T04:07:25.898Z,2.30
2023-04-27T04:12:28.180Z,2.20
2023-04-27T04:17:30.428Z,2.30
2023-04-27T04:22:32.670Z,2.20
2023-04-27T04:27:36.226Z,2.30
2023-04-27T04:32:38.494Z,2.30
2023-04-27T04:37:41.762Z,2.40
2023-04-27T04:42:44.098Z,2.50
2023-04-27T04:47:47.528Z,2.50
2023-04-27T04:52:50.095Z,2.70
2023-04-27T04:57:52.085Z,2.80
2023-04-27T05:02:54.273Z,2.90
2023-04-27T05:07:56.331Z,3.10
2023-04-27T05:12:58.405Z,3.30
2023-04-27T05:18:00.586Z,3.50
2023-04-27T05:23:02.784Z,3.60
2023-04-27T05:28:05.095Z,3.80
2023-04-27T05:33:07.287Z,4.00
2023-04-27T05:38:09.310Z,4.20
2023-04-27T05:43:11.486Z,4.40
2023-04-27T05:48:14.399Z,4.60
2023-04-27T05:53:17.456Z,4.90
2023-04-27T05:58:19.473Z,5.00
2023-04-27T06:03:21.822Z,5.30
2023-04-27T06:08:24.053Z,5.50
2023-04-27T06:13:26.076Z,5.80
2023-04-27T06:18:28.118Z,6.10
2023-04-27T06:23:30.279Z,6.10
2023-04-27T06:28:32.287Z,6.20
2023-04-27T06:33:34.716Z,6.40
2023-04-27T06:38:36.682Z,6.50
2023-04-27T06:43:38.812Z,6.70
2023-04-27T06:48:41.981Z,7.00
2023-04-27T06:53:44.247Z,7.30
2023-04-27T06:58:46.620Z,7.30
2023-04-27T07:03:48.879Z,7.40
2023-04-27T07:08:51.212Z,7.50
2023-04-27T07:13:53.300Z,7.60
2023-04-27T07:18:55.392Z,7.80
2023-04-27T07:23:57.838Z,8.00
2023-04-27T07:29:00.313Z,8.30
2023-04-27T07:34:04.170Z,8.30
2023-04-27T07:39:06.520Z,8.40
2023-04-27T07:44:08.539Z,8.50
2023-04-27T07:49:10.729Z,8.50
2023-04-27T07:54:12.788Z,8.70
2023-04-27T07:59:15.910Z,8.90
2023-04-27T08:04:19.081Z,9.20
2023-04-27T08:09:21.532Z,9.10
2023-04-27T08:14:23.800Z,9.10
2023-04-27T08:19:25.932Z,9.30
2023-04-27T08:24:28.354Z,9.70
2023-04-27T08:29:30.575Z,9.70
2023-04-27T08:34:32.934Z,9.80
2023-04-27T08:39:35.025Z,9.90
2023-04-27T08:44:42.288Z,9.60
2023-04-27T08:49:44.272Z,10.00
2023-04-27T08:54:46.353Z,10.60
2023-04-27T09:00:00.364Z,11.20
2023-04-27T09:05:03.579Z,11.80
2023-04-27T09:10:06.160Z,12.00
2023-04-27T09:15:08.854Z,11.80
2023-04-27T09:20:13.513Z,11.30
2023-04-27T09:25:30.004Z,11.20
2023-04-27T09:30:32.109Z,11.30
2023-04-27T09:35:34.438Z,11.40
2023-04-27T09:40:37.044Z,11.40
2023-04-27T09:45:39.380Z,11.50
2023-04-27T09:50:43.661Z,11.40
2023-04-27T09:56:16.705Z,11.40
2023-04-27T10:01:50.183Z,11.60
2023-04-27T10:07:07.379Z,15.10
2023-04-27T10:12:16.992Z,19.10
2023-04-27T10:17:24.726Z,21.30
2023-04-27T10:22:47.457Z,23.80
2023-04-27T10:28:01.635Z,25.20
2023-04-27T10:33:09.546Z,23.70
2023-04-27T10:38:15.867Z,21.00
2023-04-27T10:43:18.643Z,22.80
2023-04-27T10:48:20.964Z,22.50
2023-04-27T10:53:22.942Z,24.00
2023-04-27T10:58:29.877Z,20.90
2023-04-27T11:03:37.779Z,17.50
2023-04-27T11:08:46.103Z,20.00
2023-04-27T11:13:49.640Z,19.90
2023-04-27T11:18:51.780Z,18.60
2023-04-27T11:23:55.023Z,16.60
2023-04-27T11:29:00.038Z,17.90
2023-04-27T11:34:02.179Z,20.70
2023-04-27T11:39:06.578Z,20.70
2023-04-27T11:44:10.350Z,18.50
2023-04-27T11:49:13.150Z,17.00
2023-04-27T11:54:16.250Z,15.40
2023-04-27T11:59:23.393Z,14.80
2023-04-27T12:04:25.963Z,13.90
2023-04-27T12:09:29.189Z,13.50
2023-04-27T12:14:31.410Z,13.50
2023-04-27T12:19:33.562Z,13.70
2023-04-27T12:24:36.424Z,13.70
2023-04-27T12:29:39.201Z,13.90
2023-04-27T12:34:43.009Z,14.80
2023-04-27T12:39:45.433Z,15.00
2023-04-27T12:44:47.563Z,15.40
2023-04-27T12:49:49.597Z,15.80
2023-04-27T12:54:57.765Z,15.50
2023-04-27T13:00:01.820Z,16.20
2023-04-27T13:05:08.043Z,17.10
2023-04-27T13:10:10.564Z,16.80
2023-04-27T13:15:12.628Z,16.10
2023-04-27T13:20:15.884Z,15.80
2023-04-27T13:25:19.946Z,16.90
2023-04-27T13:30:22.239Z,18.70
2023-04-27T13:35:25.053Z,19.60
2023-04-27T13:40:27.240Z,19.50
2023-04-27T13:45:29.511Z,19.40
2023-04-27T13:50:31.982Z,18.90
2023-04-27T13:55:34.088Z,17.80
2023-04-27T14:00:37.174Z,17.00
2023-04-27T14:05:39.255Z,16.40
2023-04-27T14:10:41.474Z,15.50
2023-04-27T14:15:43.520Z,15.00
2023-04-27T14:20:45.644Z,15.10
2023-04-27T14:25:47.782Z,15.60
2023-04-27T14:30:50.030Z,15.30
2023-04-27T14:35:52.538Z,14.90
2023-04-27T14:40:54.592Z,14.60
2023-04-27T14:46:02.063Z,14.50
2023-04-27T14:51:11.339Z,14.60
2023-04-27T14:56:13.380Z,15.10
2023-04-27T15:01:15.625Z,15.70
2023-04-27T15:06:17.755Z,16.30
2023-04-27T15:11:19.843Z,16.00
2023-04-27T15:16:21.886Z,15.50
2023-04-27T15:21:24.094Z,15.10
2023-04-27T15:26:27.336Z,14.50
2023-04-27T15:31:29.702Z,14.30
2023-04-27T15:36:32.668Z,14.50
2023-04-27T15:41:34.795Z,14.90
2023-04-27T15:46:37.109Z,15.50
2023-04-27T15:51:39.298Z,16.60
2023-04-27T15:56:41.442Z,17.70
2023-04-27T16:01:43.603Z,17.40
2023-04-27T16:06:46.552Z,16.30
2023-04-27T16:11:48.565Z,15.20
2023-04-27T16:16:51.618Z,15.00
2023-04-27T16:21:53.720Z,15.00
2023-04-27T16:26:55.891Z,14.90
2023-04-27T16:31:58.209Z,14.50
2023-04-27T16:37:00.292Z,14.00
2023-04-27T16:42:02.886Z,13.80
2023-04-27T16:47:05.001Z,13.60
2023-04-27T16:52:07.235Z,13.40
2023-04-27T16:57:09.236Z,13.20
2023-04-27T17:07:46.049Z,12.90
2023-04-27T17:12:48.069Z,12.60
2023-04-27T17:17:50.122Z,12.40
2023-04-27T17:22:52.221Z,12.50
2023-04-27T17:27:54.304Z,12.20
2023-04-27T17:32:56.497Z,12.00
2023-04-27T17:37:58.548Z,11.80
2023-04-27T17:43:00.829Z,11.60
2023-04-27T17:48:03.377Z,11.30
2023-04-27T17:53:05.407Z,11.20
2023-04-27T17:58:07.413Z,11.10
2023-04-27T18:03:10.006Z,10.60
2023-04-27T18:08:12.195Z,10.60
2023-04-27T18:13:14.298Z,10.50
2023-04-27T18:18:21.551Z,10.40
2023-04-27T18:23:25.203Z,10.10
2023-04-27T18:28:27.313Z,10.00
2023-04-27T18:33:29.415Z,9.80
2023-04-27T18:38:31.727Z,9.70
2023-04-27T18:43:36.660Z,9.40
2023-04-27T18:48:38.696Z,9.40
2023-04-27T18:53:40.927Z,9.20
2023-04-27T18:58:42.958Z,9.20
2023-04-27T19:03:45.246Z,9.00
2023-04-27T19:08:47.447Z,8.90
2023-04-27T19:13:50.744Z,8.90
2023-04-27T19:18:55.730Z,8.80
2023-04-27T19:23:57.844Z,8.70
2023-04-27T19:28:59.956Z,8.50
2023-04-27T19:34:04.458Z,8.50
2023-04-27T19:39:07.068Z,8.40
2023-04-27T19:44:09.099Z,8.20
2023-04-27T19:49:11.154Z,8.20
2023-04-27T19:54:13.246Z,8.00
2023-04-27T19:59:15.675Z,8.00
2023-04-27T20:04:18.714Z,7.90
2023-04-27T20:09:21.415Z,7.90
2023-04-27T20:14:23.606Z,7.90
2023-04-27T20:19:25.645Z,7.90
2023-04-27T20:24:29.077Z,7.90
2023-04-27T20:29:31.913Z,7.90
2023-04-27T20:34:34.200Z,7.80
2023-04-27T20:39:36.312Z,7.80
2023-04-27T20:44:39.292Z,7.70
2023-04-27T20:49:41.938Z,7.70
2023-04-27T20:54:44.074Z,7.70
2023-04-27T20:59:46.341Z,7.60
2023-04-27T21:04:48.565Z,7.60
2023-04-27T21:09:50.834Z,7.60
2023-04-27T21:14:52.884Z,7.50
2023-04-27T21:19:56.306Z,7.40
2023-04-27T21:24:58.316Z,7.30
2023-04-27T21:30:00.387Z,7.30
2023-04-27T21:35:02.574Z,7.30
2023-04-27T21:40:05.295Z,7.20
2023-04-27T21:45:08.033Z,7.20
2023-04-27T21:50:10.477Z,7.10
2023-04-27T21:55:12.508Z,7.00
2023-04-27T22:00:15.009Z,7.00
2023-04-27T22:05:21.149Z,6.90
2023-04-27T22:10:23.210Z,6.80
2023-04-27T22:15:25.287Z,6.70
2023-04-27T22:20:27.427Z,6.60
2023-04-27T22:25:29.873Z,6.60
2023-04-27T22:30:31.877Z,6.50
2023-04-27T22:35:34.529Z,6.30
2023-04-27T22:40:36.595Z,6.30
2023-04-27T22:45:38.933Z,6.20
2023-04-27T22:50:41.217Z,6.10
2023-04-27T22:55:43.185Z,6.00
2023-04-27T23:00:45.318Z,6.00
2023-04-27T23:05:47.825Z,5.90
2023-04-27T23:10:49.820Z,5.90
2023-04-27T23:15:51.987Z,5.80
2023-04-27T23:20:54.981Z,5.80
2023-04-27T23:25:56.999Z,5.70
2023-04-27T23:30:59.113Z,5.70
2023-04-27T23:36:01.802Z,5.60
2023-04-27T23:41:04.005Z,5.60
2023-04-27T23:46:06.158Z,5.50
2023-04-27T23:51:08.593Z,5.60
2023-04-27T23:56:18.104Z,5.60
